Aeroporto :
LOGIN :

Iscrizione | Disclaimer

   EN    FR    IT 

 










Sommario :    VFR   VFR Marginale   IFR   IFR Intensivo   IFR Molto Intensivo
Visibilità : 
Base nubi : 
>= 8 km
>= 3000ft
5 / 8 km
1000 / 3000 ft
1500m / 5 km
500 / 1000 ft
800 / 1500m
200 / 500 ft
< 800m
< 200 ft
Simboli :   Temporali  Nebbia  Neve Forte  Precipitazioni Forti  Vento > 20 kt
SIGMETs :   Varie  Temporali  Ghiacco  Turbolenza  Onda orograficha  Ceneri Vulcaniche






- Altitudine del aeroporto : 83 ft
- Codice IATA : LHR


EGLL - London Heathrow

ULTIMO METAR :
  • 270320Z AUTO 21007KT 9999 FEW019 08/07 Q1004

METARs OBSOLETI :
  • 270250Z AUTO 22010KT 9999 BKN019 08/07 Q1005 NOSIG
  • 270220Z AUTO 22008KT 9999 SCT020 08/07 Q1005 NOSIG
  • 270150Z AUTO 21007KT 9999 BKN018 08/07 Q1005 NOSIG
  • 270120Z AUTO 21008KT 9999 FEW043 BKN049 08/07 Q1005 NOSIG
  • 270050Z AUTO 21008KT 9999 NCD 08/07 Q1005 NOSIG

TAF TAF EGLL
Valido dal 27 a 00 ore il 28 a 06 ore UTC


262253Z 2700/2806 21008KT 9999 SCT025
PROB30
TEMPO 2700/2704 BKN008
PROB30
TEMPO 2704/2713 7000 SHRA
TEMPO 2713/2803 7000 SHRA
PROB30
TEMPO 2714/2801 4000 +SHRA BKN012
BECMG 2800/2803 27012KT



MetMap, La meteo Aeronautica in un colpo d'occhio ! - Copyright ORBIFLY Dicembre 2007 - Disclaimer

ORBIFLY MET'MAP TEAM :

Programmazione e sviluppo : Alexandra Zaïnal
Concezione : Baudouin d'Aumeries
Aiuto per la programmazione : Marc-Olivier Méhu
Supporto tecnico e logistico : Manuel Goepfert
Aiuto per la traduzione : Arnaldo La Scala

Contatto : metmap@orbifly.com




FONTI E CREDITI :

   NOAA